createdAt,value
2018-05-29T00:01:53.842Z,22.50
2018-05-29T00:04:22.692Z,22.40
2018-05-29T00:06:51.717Z,22.30
2018-05-29T00:09:19.988Z,22.30
2018-05-29T00:11:48.237Z,22.30
2018-05-29T00:14:17.272Z,22.30
2018-05-29T00:16:46.356Z,22.20
2018-05-29T00:19:14.620Z,22.20
2018-05-29T00:21:42.873Z,22.20
2018-05-29T00:24:11.125Z,22.20
2018-05-29T00:26:39.376Z,22.20
2018-05-29T00:29:07.670Z,22.00
2018-05-29T00:31:35.926Z,22.00
2018-05-29T00:34:04.209Z,21.90
2018-05-29T00:36:33.306Z,22.00
2018-05-29T00:39:02.327Z,22.00
2018-05-29T00:41:31.152Z,22.00
2018-05-29T00:43:59.448Z,22.00
2018-05-29T00:46:27.709Z,21.90
2018-05-29T00:48:56.088Z,22.00
2018-05-29T00:51:25.153Z,21.90
2018-05-29T00:53:54.214Z,22.00
2018-05-29T00:56:22.516Z,21.90
2018-05-29T00:58:50.793Z,21.90
2018-05-29T01:01:19.915Z,21.90
2018-05-29T01:03:48.952Z,21.80
2018-05-29T01:06:17.696Z,21.80
2018-05-29T01:08:46.727Z,21.80
2018-05-29T01:11:14.986Z,21.80
2018-05-29T01:13:43.243Z,21.70
2018-05-29T01:16:12.369Z,21.70
2018-05-29T01:18:41.329Z,21.70
2018-05-29T01:21:09.579Z,21.70
2018-05-29T01:23:38.066Z,21.70
2018-05-29T01:26:06.338Z,21.70
2018-05-29T01:28:34.590Z,21.80
2018-05-29T01:31:03.720Z,21.70
2018-05-29T01:33:31.999Z,21.70
2018-05-29T01:36:00.221Z,21.60
2018-05-29T01:38:28.517Z,21.70
2018-05-29T01:40:56.765Z,21.60
2018-05-29T01:43:25.001Z,21.60
2018-05-29T01:45:53.252Z,21.60
2018-05-29T01:48:21.532Z,21.60
2018-05-29T01:50:49.795Z,21.60
2018-05-29T01:53:18.065Z,21.60
2018-05-29T01:55:48.532Z,21.60
2018-05-29T01:58:17.591Z,21.60
2018-05-29T02:00:45.860Z,21.60
2018-05-29T02:03:14.106Z,21.50
2018-05-29T02:05:43.129Z,21.50
2018-05-29T02:08:11.772Z,21.40
2018-05-29T02:10:40.041Z,21.40
2018-05-29T02:13:09.044Z,21.30
2018-05-29T02:15:37.296Z,21.30
2018-05-29T02:18:05.541Z,21.10
2018-05-29T02:20:35.176Z,21.20
2018-05-29T02:23:03.404Z,21.20
2018-05-29T02:25:31.674Z,21.20
2018-05-29T02:27:59.924Z,21.20
2018-05-29T02:30:28.423Z,21.00
2018-05-29T02:32:56.759Z,20.90
2018-05-29T02:35:25.807Z,21.00
2018-05-29T02:37:54.053Z,21.00
2018-05-29T02:40:22.369Z,21.00
2018-05-29T02:42:50.626Z,21.00
2018-05-29T02:45:18.877Z,21.00
2018-05-29T02:47:47.885Z,21.10
2018-05-29T02:50:16.928Z,21.10
2018-05-29T02:52:45.171Z,21.10
2018-05-29T02:55:14.221Z,20.90
2018-05-29T02:57:42.629Z,20.90
2018-05-29T03:00:10.924Z,20.80
2018-05-29T03:02:39.926Z,20.90
2018-05-29T03:05:08.961Z,20.80
2018-05-29T03:07:37.205Z,20.80
2018-05-29T03:10:06.780Z,20.70
2018-05-29T03:12:35.020Z,20.70
2018-05-29T03:15:03.291Z,20.60
2018-05-29T03:17:31.548Z,20.40
2018-05-29T03:19:59.817Z,20.40
2018-05-29T03:22:28.190Z,20.40
2018-05-29T03:24:56.451Z,20.40
2018-05-29T03:27:24.703Z,20.30
2018-05-29T03:29:53.016Z,20.20
2018-05-29T03:32:21.286Z,20.20
2018-05-29T03:34:49.573Z,20.10
2018-05-29T03:37:17.830Z,20.10
2018-05-29T03:39:46.965Z,20.00
2018-05-29T03:42:15.212Z,20.00
2018-05-29T03:44:43.472Z,19.90
2018-05-29T03:47:13.238Z,20.00
2018-05-29T03:49:41.645Z,20.00
2018-05-29T03:52:09.911Z,20.00
2018-05-29T03:54:38.154Z,20.00
2018-05-29T03:57:06.405Z,20.00
2018-05-29T03:59:34.646Z,20.00
2018-05-29T04:02:02.909Z,20.10
2018-05-29T04:04:31.156Z,20.10
2018-05-29T04:07:00.180Z,20.10
2018-05-29T04:09:28.490Z,20.10
2018-05-29T04:11:57.530Z,20.10
2018-05-29T04:14:25.764Z,20.10
2018-05-29T04:16:54.046Z,20.10
2018-05-29T04:19:23.021Z,20.20
2018-05-29T04:21:51.299Z,20.30
2018-05-29T04:24:19.542Z,20.30
2018-05-29T04:26:47.868Z,20.40
2018-05-29T04:29:16.107Z,20.60
2018-05-29T04:31:44.363Z,20.80
2018-05-29T04:34:12.817Z,20.60
2018-05-29T04:36:41.816Z,20.60
2018-05-29T04:39:10.060Z,20.60
2018-05-29T04:41:38.414Z,20.50
2018-05-29T04:44:07.501Z,20.60
2018-05-29T04:46:35.744Z,20.60
2018-05-29T04:49:05.239Z,20.80
2018-05-29T04:51:34.264Z,20.80
2018-05-29T04:54:02.541Z,20.80
2018-05-29T04:56:31.020Z,21.00
2018-05-29T04:58:59.248Z,21.10
2018-05-29T05:01:27.512Z,21.10
2018-05-29T05:03:55.768Z,21.20
2018-05-29T05:06:24.097Z,21.20
2018-05-29T05:08:52.334Z,21.20
2018-05-29T05:11:20.681Z,21.30
2018-05-29T05:13:48.935Z,21.30
2018-05-29T05:16:17.260Z,21.30
2018-05-29T05:18:46.308Z,21.40
2018-05-29T05:21:14.554Z,21.40
2018-05-29T05:23:42.844Z,21.60
2018-05-29T05:26:11.104Z,21.60
2018-05-29T05:28:40.131Z,21.70
2018-05-29T05:31:08.454Z,21.70
2018-05-29T05:33:39.550Z,21.70
2018-05-29T05:36:08.577Z,21.90
2018-05-29T05:38:36.826Z,21.90
2018-05-29T05:41:05.834Z,22.10
2018-05-29T05:43:34.117Z,22.10
2018-05-29T05:46:02.427Z,22.20
2018-05-29T05:48:30.683Z,22.30
2018-05-29T05:50:58.947Z,22.50
2018-05-29T05:53:27.972Z,22.80
2018-05-29T05:55:56.226Z,22.80
2018-05-29T05:58:25.253Z,23.10
2018-05-29T06:00:53.521Z,23.00
2018-05-29T06:03:22.641Z,23.10
2018-05-29T06:05:50.895Z,23.30
2018-05-29T06:08:19.192Z,23.50
2018-05-29T06:10:47.463Z,23.70
2018-05-29T06:13:15.739Z,24.00
2018-05-29T06:15:44.002Z,24.10
2018-05-29T06:18:13.077Z,24.50
2018-05-29T06:20:41.300Z,24.50
2018-05-29T06:23:09.565Z,24.70
2018-05-29T06:25:38.606Z,24.70
2018-05-29T06:28:06.859Z,24.70
2018-05-29T06:30:35.129Z,25.00
2018-05-29T06:33:04.187Z,25.30
2018-05-29T06:35:32.563Z,25.30
2018-05-29T06:38:00.844Z,25.50
2018-05-29T06:40:29.099Z,25.70
2018-05-29T06:42:57.944Z,25.90
2018-05-29T06:45:26.197Z,26.10
2018-05-29T06:47:54.472Z,26.30
2018-05-29T06:50:22.750Z,26.50
2018-05-29T06:52:50.997Z,26.60
2018-05-29T06:55:20.064Z,26.90
2018-05-29T06:57:49.099Z,26.90
2018-05-29T07:00:17.893Z,27.10
2018-05-29T07:02:46.152Z,27.30
2018-05-29T07:05:15.212Z,27.60
2018-05-29T07:07:43.469Z,27.60
2018-05-29T07:10:11.713Z,27.80
2018-05-29T07:12:40.070Z,28.10
2018-05-29T07:15:08.323Z,28.20
2018-05-29T07:17:37.095Z,28.50
2018-05-29T07:20:05.373Z,28.50
2018-05-29T07:22:34.383Z,28.70
2018-05-29T07:25:02.684Z,28.70
2018-05-29T07:27:30.943Z,28.80
2018-05-29T07:29:59.201Z,28.80
2018-05-29T07:32:28.224Z,29.30
2018-05-29T07:34:56.494Z,29.30
2018-05-29T07:37:25.506Z,29.80
2018-05-29T07:39:53.760Z,29.70
2018-05-29T07:42:22.773Z,30.20
2018-05-29T07:44:51.809Z,30.20
2018-05-29T07:47:21.015Z,30.10
2018-05-29T07:49:49.284Z,30.40
2018-05-29T07:52:17.524Z,30.50
2018-05-29T07:54:45.791Z,30.60
2018-05-29T07:57:14.800Z,30.70
2018-05-29T07:59:43.827Z,31.00
2018-05-29T08:02:12.081Z,31.00
2018-05-29T08:04:40.348Z,31.10
2018-05-29T08:07:08.944Z,31.30
2018-05-29T08:09:37.213Z,31.50
2018-05-29T08:12:05.480Z,31.50
2018-05-29T08:14:33.729Z,31.70
2018-05-29T08:17:01.973Z,31.60
2018-05-29T08:19:31.066Z,32.00
2018-05-29T08:21:59.316Z,32.00
2018-05-29T08:24:27.608Z,32.20
2018-05-29T08:26:55.856Z,32.30
2018-05-29T08:29:24.147Z,32.60
2018-05-29T08:31:52.430Z,32.60
2018-05-29T08:34:20.702Z,32.60
2018-05-29T08:36:49.822Z,33.00
2018-05-29T08:39:18.721Z,33.10
2018-05-29T08:41:46.937Z,33.30
2018-05-29T08:44:16.007Z,33.30
2018-05-29T08:46:44.751Z,33.20
2018-05-29T08:49:13.033Z,33.10
2018-05-29T08:51:42.053Z,33.30
2018-05-29T08:54:10.351Z,33.40
2018-05-29T08:56:38.614Z,33.60
2018-05-29T08:59:06.856Z,33.70
2018-05-29T09:01:38.262Z,33.60
2018-05-29T09:04:06.633Z,33.50
2018-05-29T09:06:35.581Z,33.70
2018-05-29T09:09:03.842Z,34.10
2018-05-29T09:11:32.100Z,34.20
2018-05-29T09:14:00.372Z,34.40
2018-05-29T09:16:28.612Z,34.30
2018-05-29T09:18:56.884Z,34.20
2018-05-29T09:21:26.030Z,34.20
2018-05-29T09:23:54.753Z,34.60
2018-05-29T09:26:23.049Z,34.70
2018-05-29T09:28:52.631Z,34.70
2018-05-29T09:31:20.899Z,34.40
2018-05-29T09:33:49.157Z,34.60
2018-05-29T09:36:18.176Z,34.50
2018-05-29T09:38:46.424Z,34.50
2018-05-29T09:41:15.465Z,35.00
2018-05-29T09:43:44.628Z,35.00
2018-05-29T09:46:12.874Z,35.00
2018-05-29T09:48:41.121Z,35.10
2018-05-29T09:51:09.396Z,35.40
2018-05-29T09:53:37.670Z,35.60
2018-05-29T09:56:06.675Z,36.00
2018-05-29T09:58:35.091Z,36.00
2018-05-29T10:01:03.336Z,36.00
2018-05-29T10:03:31.658Z,35.90
2018-05-29T10:05:59.936Z,36.20
2018-05-29T10:08:28.208Z,36.20
2018-05-29T10:10:56.449Z,36.10
2018-05-29T10:13:25.522Z,36.10
2018-05-29T10:15:54.843Z,36.10
2018-05-29T10:18:23.073Z,35.90
2018-05-29T10:20:51.329Z,36.10
2018-05-29T10:23:19.627Z,36.10
2018-05-29T10:25:48.614Z,36.10
2018-05-29T10:28:16.946Z,36.10
2018-05-29T10:30:46.007Z,36.20
2018-05-29T10:33:14.279Z,36.30
2018-05-29T10:35:42.527Z,36.40
2018-05-29T10:38:10.951Z,36.40
2018-05-29T10:40:39.224Z,36.90
2018-05-29T10:43:07.484Z,36.70
2018-05-29T10:45:46.034Z,37.00
2018-05-29T10:48:14.748Z,37.00
2018-05-29T10:50:43.050Z,36.90
2018-05-29T10:53:11.346Z,36.90
2018-05-29T10:55:39.616Z,36.70
2018-05-29T10:58:07.896Z,36.60
2018-05-29T11:00:36.231Z,36.50
2018-05-29T11:03:04.516Z,36.50
2018-05-29T11:05:32.779Z,36.40
2018-05-29T11:08:01.045Z,36.00
2018-05-29T11:10:30.773Z,36.40
2018-05-29T11:12:59.622Z,36.30
2018-05-29T11:15:27.870Z,36.10
2018-05-29T11:17:56.709Z,36.30
2018-05-29T11:20:24.976Z,36.20
2018-05-29T11:22:53.283Z,36.30
2018-05-29T11:25:22.251Z,36.00
2018-05-29T11:27:51.095Z,35.60
2018-05-29T11:30:19.359Z,35.60
2018-05-29T11:32:48.428Z,35.90
2018-05-29T11:35:17.536Z,35.80
2018-05-29T11:37:45.800Z,36.00
2018-05-29T11:40:14.076Z,36.00
2018-05-29T11:42:42.945Z,36.30
2018-05-29T11:45:11.189Z,36.20
2018-05-29T11:47:40.168Z,36.00
2018-05-29T11:50:08.416Z,35.90
2018-05-29T11:52:36.697Z,35.80
2018-05-29T11:55:04.953Z,36.00
2018-05-29T11:57:33.998Z,35.60
2018-05-29T12:00:03.349Z,35.40
2018-05-29T12:02:31.620Z,35.40
2018-05-29T12:05:00.669Z,35.60
2018-05-29T12:07:28.899Z,35.60
2018-05-29T12:09:57.912Z,35.20
2018-05-29T12:12:26.945Z,34.90
2018-05-29T12:14:55.212Z,34.90
2018-05-29T12:17:23.464Z,35.10
2018-05-29T12:19:52.485Z,35.70
2018-05-29T12:22:20.876Z,35.60
2018-05-29T12:24:49.064Z,36.00
2018-05-29T12:27:17.345Z,36.10
2018-05-29T12:29:45.606Z,36.10
2018-05-29T12:32:14.015Z,35.90
2018-05-29T12:34:42.292Z,35.80
2018-05-29T12:37:10.563Z,35.40
2018-05-29T12:39:38.896Z,35.20
2018-05-29T12:42:07.166Z,35.10
2018-05-29T12:44:35.419Z,34.90
2018-05-29T12:47:03.676Z,34.70
2018-05-29T12:49:33.332Z,34.20
2018-05-29T12:52:01.679Z,34.20
2018-05-29T12:54:29.952Z,33.90
2018-05-29T12:56:58.991Z,33.60
2018-05-29T12:59:27.324Z,33.60
2018-05-29T13:01:56.365Z,33.10
2018-05-29T13:04:25.283Z,33.00
2018-05-29T13:06:53.512Z,32.80
2018-05-29T13:09:22.669Z,32.20
2018-05-29T13:11:50.909Z,32.20
2018-05-29T13:14:19.191Z,32.10
2018-05-29T13:16:47.493Z,31.80
2018-05-29T13:19:15.901Z,31.70
2018-05-29T13:21:44.249Z,31.50
2018-05-29T13:24:13.404Z,31.30
2018-05-29T13:26:42.484Z,31.10
2018-05-29T13:29:10.749Z,31.00
2018-05-29T13:31:39.033Z,30.90
2018-05-29T13:34:08.120Z,30.80
2018-05-29T13:36:36.352Z,30.60
2018-05-29T13:39:05.404Z,30.20
2018-05-29T13:41:33.673Z,30.20
2018-05-29T13:44:02.025Z,29.90
2018-05-29T13:46:30.313Z,29.60
2018-05-29T13:48:58.634Z,28.90
2018-05-29T13:51:26.908Z,28.60
2018-05-29T13:53:55.179Z,28.20
2018-05-29T13:56:24.216Z,27.90
2018-05-29T13:58:55.102Z,27.70
2018-05-29T14:01:24.144Z,27.30
2018-05-29T14:03:52.420Z,27.20
2018-05-29T14:06:20.681Z,27.10
2018-05-29T14:08:48.946Z,26.80
2018-05-29T14:11:17.519Z,26.50
2018-05-29T14:13:45.808Z,25.90
2018-05-29T14:16:15.107Z,25.00
2018-05-29T14:18:44.137Z,24.70
2018-05-29T14:21:12.377Z,24.70
2018-05-29T14:23:40.664Z,24.60
2018-05-29T14:26:09.704Z,24.20
2018-05-29T14:28:37.951Z,24.20
2018-05-29T14:31:07.018Z,23.90
2018-05-29T14:33:35.294Z,23.90
2018-05-29T14:36:03.576Z,23.90
2018-05-29T14:38:31.929Z,23.70
2018-05-29T14:41:00.153Z,23.70
2018-05-29T14:43:28.471Z,23.60
2018-05-29T14:45:56.745Z,23.50
2018-05-29T14:48:25.755Z,23.30
2018-05-29T14:50:54.040Z,23.20
2018-05-29T14:53:23.038Z,23.10
2018-05-29T14:55:51.289Z,23.10
2018-05-29T14:58:20.305Z,22.80
2018-05-29T15:00:49.338Z,22.50
2018-05-29T15:03:17.585Z,22.50
2018-05-29T15:05:46.615Z,21.70
2018-05-29T15:08:14.851Z,21.70
2018-05-29T15:10:43.920Z,20.90
2018-05-29T15:13:12.186Z,20.80
2018-05-29T15:15:40.416Z,20.80
2018-05-29T15:18:08.766Z,20.70
2018-05-29T15:20:37.827Z,20.70
2018-05-29T15:23:06.140Z,20.70
2018-05-29T15:25:35.110Z,20.80
2018-05-29T15:28:04.321Z,20.70
2018-05-29T15:30:32.608Z,20.60
2018-05-29T15:33:00.880Z,20.60
2018-05-29T15:35:29.211Z,20.50
2018-05-29T15:37:58.380Z,20.50
2018-05-29T15:40:26.667Z,20.40
2018-05-29T15:42:54.948Z,20.40
2018-05-29T15:45:23.213Z,20.40
2018-05-29T15:47:52.179Z,20.30
2018-05-29T15:50:21.522Z,20.20
2018-05-29T15:52:49.821Z,20.00
2018-05-29T15:55:18.117Z,19.90
2018-05-29T15:57:46.421Z,19.90
2018-05-29T16:00:16.296Z,19.80
2018-05-29T16:02:44.574Z,19.80
2018-05-29T16:05:12.812Z,19.90
2018-05-29T16:07:41.851Z,19.90
2018-05-29T16:10:10.124Z,19.80
2018-05-29T16:12:38.356Z,19.90
2018-05-29T16:15:07.385Z,19.90
2018-05-29T16:17:35.642Z,19.90
2018-05-29T16:20:04.693Z,19.90
2018-05-29T16:22:33.025Z,19.90
2018-05-29T16:25:02.076Z,19.90
2018-05-29T16:27:30.388Z,19.80
2018-05-29T16:29:58.705Z,19.90
2018-05-29T16:32:27.001Z,20.00
2018-05-29T16:34:55.244Z,20.00
2018-05-29T16:37:24.293Z,20.10
2018-05-29T16:39:52.552Z,20.00
2018-05-29T16:42:21.347Z,20.10
2018-05-29T16:44:49.601Z,20.10
2018-05-29T16:47:18.673Z,20.20
2018-05-29T16:49:46.979Z,20.20
2018-05-29T16:52:15.335Z,20.10
2018-05-29T16:54:43.613Z,20.10
2018-05-29T16:57:11.887Z,20.20
2018-05-29T16:59:41.128Z,20.20
2018-05-29T17:02:09.410Z,20.20
2018-05-29T17:04:37.705Z,20.20
2018-05-29T17:07:06.725Z,20.30
2018-05-29T17:09:35.010Z,20.30
2018-05-29T17:12:03.275Z,20.20
2018-05-29T17:14:31.528Z,20.30
2018-05-29T17:17:00.541Z,20.30
2018-05-29T17:19:29.588Z,20.40
2018-05-29T17:21:58.144Z,20.30
2018-05-29T17:24:27.157Z,20.60
2018-05-29T17:26:55.430Z,20.60
2018-05-29T17:29:24.376Z,20.60
2018-05-29T17:31:53.461Z,20.70
2018-05-29T17:34:21.757Z,20.60
2018-05-29T17:36:50.144Z,20.70
2018-05-29T17:39:18.491Z,20.60
2018-05-29T17:41:46.817Z,20.50
2018-05-29T17:44:15.784Z,20.50
2018-05-29T17:46:44.864Z,20.60
2018-05-29T17:49:13.124Z,20.60
2018-05-29T17:51:42.385Z,20.40
2018-05-29T17:54:10.975Z,20.40
2018-05-29T17:56:39.243Z,20.40
2018-05-29T17:59:08.688Z,20.40
2018-05-29T18:01:37.927Z,20.30
2018-05-29T18:04:06.197Z,20.30
2018-05-29T18:06:35.423Z,20.40
2018-05-29T18:09:03.890Z,20.40
2018-05-29T18:11:32.383Z,20.30
2018-05-29T18:14:00.845Z,20.40
2018-05-29T18:16:29.302Z,20.40
2018-05-29T18:18:57.546Z,20.40
2018-05-29T18:21:25.883Z,20.40
2018-05-29T18:23:55.121Z,20.40
2018-05-29T18:26:23.581Z,20.60
2018-05-29T18:28:52.766Z,20.70
2018-05-29T18:31:21.415Z,20.70
2018-05-29T18:33:49.965Z,20.60
2018-05-29T18:36:18.313Z,20.70
2018-05-29T18:38:47.046Z,20.70
2018-05-29T18:41:15.585Z,20.60
2018-05-29T18:43:43.990Z,20.40
2018-05-29T18:46:12.467Z,20.50
2018-05-29T18:48:41.675Z,20.50
2018-05-29T18:51:10.199Z,20.50
2018-05-29T18:53:38.637Z,20.50
2018-05-29T18:56:07.073Z,20.60
2018-05-29T18:58:36.345Z,20.50
2018-05-29T19:01:04.604Z,20.50
2018-05-29T19:03:33.076Z,20.50
2018-05-29T19:06:01.715Z,20.50
2018-05-29T19:08:31.159Z,20.60
2018-05-29T19:10:59.610Z,20.50
2018-05-29T19:13:28.770Z,20.50
2018-05-29T19:15:57.171Z,20.50
2018-05-29T19:18:25.632Z,20.60
2018-05-29T19:20:54.831Z,20.70
2018-05-29T19:23:23.239Z,20.70
2018-05-29T19:25:51.695Z,20.70
2018-05-29T19:28:20.037Z,20.60
2018-05-29T19:30:49.647Z,20.60
2018-05-29T19:33:19.176Z,20.60
2018-05-29T19:35:47.872Z,20.60
2018-05-29T19:38:16.567Z,20.60
2018-05-29T19:40:45.096Z,20.70
2018-05-29T19:43:13.636Z,20.70
2018-05-29T19:45:42.129Z,20.70
2018-05-29T19:48:10.717Z,20.70
2018-05-29T19:50:39.199Z,20.70
2018-05-29T19:53:07.655Z,20.70
2018-05-29T19:55:36.820Z,20.70
2018-05-29T19:58:05.320Z,20.70
2018-05-29T20:00:33.762Z,20.70
2018-05-29T20:03:02.356Z,20.70
2018-05-29T20:05:30.666Z,20.70
2018-05-29T20:07:58.993Z,20.70
2018-05-29T20:10:27.522Z,20.70
2018-05-29T20:12:56.835Z,20.70
2018-05-29T20:15:25.083Z,20.70
2018-05-29T20:17:53.687Z,20.80
2018-05-29T20:20:22.208Z,20.80
2018-05-29T20:22:50.873Z,20.80
2018-05-29T20:25:19.254Z,20.80
2018-05-29T20:27:49.232Z,20.90
2018-05-29T20:30:17.551Z,20.80
2018-05-29T20:32:45.945Z,20.80
2018-05-29T20:35:14.253Z,20.70
2018-05-29T20:37:42.642Z,20.70
2018-05-29T20:40:11.016Z,20.70
2018-05-29T20:42:41.116Z,20.80
2018-05-29T20:45:09.452Z,20.80
2018-05-29T20:47:39.716Z,20.70
2018-05-29T20:50:08.106Z,20.70
2018-05-29T20:52:37.337Z,20.70
2018-05-29T20:55:05.727Z,20.70
2018-05-29T20:57:34.191Z,20.60
2018-05-29T21:00:02.657Z,20.70
2018-05-29T21:02:31.039Z,20.70
2018-05-29T21:04:59.439Z,20.60
2018-05-29T21:07:27.868Z,20.70
2018-05-29T21:09:56.296Z,20.60
2018-05-29T21:12:24.554Z,20.60
2018-05-29T21:14:53.051Z,20.60
2018-05-29T21:17:21.409Z,20.60
2018-05-29T21:19:50.833Z,20.80
2018-05-29T21:22:19.327Z,20.70
2018-05-29T21:24:47.691Z,20.70
2018-05-29T21:27:16.838Z,20.60
2018-05-29T21:29:45.542Z,20.60
2018-05-29T21:32:14.038Z,20.70
2018-05-29T21:34:42.481Z,20.70
2018-05-29T21:37:10.874Z,20.70
2018-05-29T21:39:39.339Z,20.70
2018-05-29T21:42:08.430Z,20.70
2018-05-29T21:44:37.683Z,20.70
2018-05-29T21:47:06.134Z,20.60
2018-05-29T21:49:34.789Z,20.60
2018-05-29T21:52:03.284Z,20.60
2018-05-29T21:54:32.510Z,20.50
2018-05-29T21:57:01.607Z,20.70
2018-05-29T21:59:30.922Z,20.60
2018-05-29T22:01:59.224Z,20.60
2018-05-29T22:04:28.251Z,20.70
2018-05-29T22:06:56.649Z,20.60
2018-05-29T22:09:25.185Z,20.60
2018-05-29T22:11:53.567Z,20.50
2018-05-29T22:14:22.262Z,20.50
2018-05-29T22:16:50.633Z,20.60
2018-05-29T22:19:19.883Z,20.60
2018-05-29T22:21:48.202Z,20.50
2018-05-29T22:24:17.774Z,20.60
2018-05-29T22:26:46.154Z,20.50
2018-05-29T22:29:14.522Z,20.50
2018-05-29T22:31:42.962Z,20.50
2018-05-29T22:34:11.978Z,20.40
2018-05-29T22:36:40.339Z,20.30
2018-05-29T22:39:09.611Z,20.50
2018-05-29T22:41:37.978Z,20.50
2018-05-29T22:44:06.440Z,20.40
2018-05-29T22:46:35.094Z,20.50
2018-05-29T22:49:03.319Z,20.50
2018-05-29T22:51:31.578Z,20.40
2018-05-29T22:54:00.608Z,20.20
2018-05-29T22:56:28.849Z,20.20
2018-05-29T22:58:58.505Z,20.30
2018-05-29T23:01:27.011Z,20.30
2018-05-29T23:03:55.275Z,20.40
2018-05-29T23:06:23.551Z,20.30
2018-05-29T23:08:51.804Z,20.30
2018-05-29T23:11:20.826Z,20.30
2018-05-29T23:13:49.060Z,20.40
2018-05-29T23:16:17.631Z,20.20
2018-05-29T23:18:46.784Z,20.10
2018-05-29T23:21:15.045Z,20.10
2018-05-29T23:23:44.039Z,20.10
2018-05-29T23:26:13.072Z,20.20
2018-05-29T23:28:41.312Z,20.20
2018-05-29T23:31:11.077Z,20.60
2018-05-29T23:33:39.314Z,20.60
2018-05-29T23:36:08.356Z,20.60
2018-05-29T23:38:36.625Z,20.60
2018-05-29T23:41:04.926Z,20.70
2018-05-29T23:43:33.164Z,20.70
2018-05-29T23:46:02.175Z,20.50
2018-05-29T23:48:30.498Z,20.50
2018-05-29T23:50:59.371Z,20.50
2018-05-29T23:53:27.621Z,20.40
2018-05-29T23:55:58.445Z,20.40
2018-05-29T23:58:27.913Z,20.40
